sensor_id;sensor_type;location;lat;lon;timestamp;P1;durP1;ratioP1;P2;durP2;ratioP2
13335;SDS011;6737;51.480;11.962;2022-10-31T00:00:57;11.83;;;5.87;;
13335;SDS011;6737;51.480;11.962;2022-10-31T00:03:23;9.17;;;5.57;;
13335;SDS011;6737;51.480;11.962;2022-10-31T00:05:49;8.03;;;5.53;;
13335;SDS011;6737;51.480;11.962;2022-10-31T00:08:16;10.77;;;5.83;;
13335;SDS011;6737;51.480;11.962;2022-10-31T00:10:42;11.10;;;6.00;;
13335;SDS011;6737;51.480;11.962;2022-10-31T00:13:09;14.70;;;6.53;;
13335;SDS011;6737;51.480;11.962;2022-10-31T00:15:36;10.80;;;5.80;;
13335;SDS011;6737;51.480;11.962;2022-10-31T00:18:04;11.03;;;5.60;;
13335;SDS011;6737;51.480;11.962;2022-10-31T00:20:31;9.13;;;6.23;;
13335;SDS011;6737;51.480;11.962;2022-10-31T00:22:57;13.80;;;7.33;;
13335;SDS011;6737;51.480;11.962;2022-10-31T00:25:24;9.67;;;5.77;;
13335;SDS011;6737;51.480;11.962;2022-10-31T00:27:51;11.13;;;6.23;;
13335;SDS011;6737;51.480;11.962;2022-10-31T00:30:17;10.40;;;5.67;;
13335;SDS011;6737;51.480;11.962;2022-10-31T00:32:43;8.23;;;5.33;;
13335;SDS011;6737;51.480;11.962;2022-10-31T00:35:09;8.80;;;5.67;;
13335;SDS011;6737;51.480;11.962;2022-10-31T00:37:35;9.13;;;5.73;;
13335;SDS011;6737;51.480;11.962;2022-10-31T00:40:00;9.43;;;5.80;;
13335;SDS011;6737;51.480;11.962;2022-10-31T00:42:26;9.10;;;5.47;;
13335;SDS011;6737;51.480;11.962;2022-10-31T00:44:52;9.63;;;5.53;;
13335;SDS011;6737;51.480;11.962;2022-10-31T00:47:18;11.80;;;6.00;;
13335;SDS011;6737;51.480;11.962;2022-10-31T00:49:43;16.07;;;6.00;;
13335;SDS011;6737;51.480;11.962;2022-10-31T00:52:09;10.07;;;6.27;;
13335;SDS011;6737;51.480;11.962;2022-10-31T00:54:35;10.93;;;6.97;;
13335;SDS011;6737;51.480;11.962;2022-10-31T00:57:00;10.03;;;6.63;;
13335;SDS011;6737;51.480;11.962;2022-10-31T00:59:26;10.43;;;5.87;;
13335;SDS011;6737;51.480;11.962;2022-10-31T01:01:52;11.73;;;6.20;;
13335;SDS011;6737;51.480;11.962;2022-10-31T01:04:18;8.80;;;5.30;;
13335;SDS011;6737;51.480;11.962;2022-10-31T01:06:43;11.03;;;6.20;;
13335;SDS011;6737;51.480;11.962;2022-10-31T01:09:09;8.00;;;5.80;;
13335;SDS011;6737;51.480;11.962;2022-10-31T01:11:35;8.90;;;5.87;;
13335;SDS011;6737;51.480;11.962;2022-10-31T01:14:00;9.40;;;5.60;;
13335;SDS011;6737;51.480;11.962;2022-10-31T01:16:26;10.50;;;5.87;;
13335;SDS011;6737;51.480;11.962;2022-10-31T01:18:54;10.47;;;5.73;;
13335;SDS011;6737;51.480;11.962;2022-10-31T01:21:24;9.60;;;6.10;;
13335;SDS011;6737;51.480;11.962;2022-10-31T01:23:52;11.40;;;6.40;;
13335;SDS011;6737;51.480;11.962;2022-10-31T01:26:24;10.63;;;6.60;;
13335;SDS011;6737;51.480;11.962;2022-10-31T01:28:54;12.73;;;6.80;;
13335;SDS011;6737;51.480;11.962;2022-10-31T01:31:35;11.27;;;6.40;;
13335;SDS011;6737;51.480;11.962;2022-10-31T01:34:03;9.20;;;6.13;;
13335;SDS011;6737;51.480;11.962;2022-10-31T01:36:31;8.67;;;6.30;;
13335;SDS011;6737;51.480;11.962;2022-10-31T01:39:03;10.30;;;6.77;;
13335;SDS011;6737;51.480;11.962;2022-10-31T01:41:33;13.70;;;7.40;;
13335;SDS011;6737;51.480;11.962;2022-10-31T01:44:02;8.73;;;6.30;;
13335;SDS011;6737;51.480;11.962;2022-10-31T01:49:51;9.83;;;6.53;;
13335;SDS011;6737;51.480;11.962;2022-10-31T01:52:21;11.53;;;6.80;;
13335;SDS011;6737;51.480;11.962;2022-10-31T01:54:57;11.33;;;6.47;;
13335;SDS011;6737;51.480;11.962;2022-10-31T01:57:26;11.87;;;6.87;;
13335;SDS011;6737;51.480;11.962;2022-10-31T01:59:54;10.40;;;6.57;;
13335;SDS011;6737;51.480;11.962;2022-10-31T02:02:23;12.30;;;6.73;;
13335;SDS011;6737;51.480;11.962;2022-10-31T02:04:50;11.63;;;6.43;;
13335;SDS011;6737;51.480;11.962;2022-10-31T02:07:20;11.83;;;7.23;;
13335;SDS011;6737;51.480;11.962;2022-10-31T02:09:51;11.90;;;7.70;;
13335;SDS011;6737;51.480;11.962;2022-10-31T02:12:19;12.73;;;7.30;;
13335;SDS011;6737;51.480;11.962;2022-10-31T02:14:46;15.33;;;7.50;;
13335;SDS011;6737;51.480;11.962;2022-10-31T02:17:12;13.83;;;7.57;;
13335;SDS011;6737;51.480;11.962;2022-10-31T02:19:59;10.33;;;6.67;;
13335;SDS011;6737;51.480;11.962;2022-10-31T02:30:11;10.20;;;5.60;;
13335;SDS011;6737;51.480;11.962;2022-10-31T02:35:25;7.77;;;4.93;;
13335;SDS011;6737;51.480;11.962;2022-10-31T02:38:13;9.27;;;5.07;;
13335;SDS011;6737;51.480;11.962;2022-10-31T02:40:44;8.73;;;5.10;;
13335;SDS011;6737;51.480;11.962;2022-10-31T02:43:27;9.93;;;5.27;;
13335;SDS011;6737;51.480;11.962;2022-10-31T02:46:03;10.90;;;5.13;;
13335;SDS011;6737;51.480;11.962;2022-10-31T02:48:40;8.40;;;5.20;;
13335;SDS011;6737;51.480;11.962;2022-10-31T02:51:09;8.50;;;5.20;;
13335;SDS011;6737;51.480;11.962;2022-10-31T02:53:37;8.27;;;5.20;;
13335;SDS011;6737;51.480;11.962;2022-10-31T02:58:45;8.57;;;5.00;;
13335;SDS011;6737;51.480;11.962;2022-10-31T03:06:45;7.57;;;4.93;;
13335;SDS011;6737;51.480;11.962;2022-10-31T03:17:36;11.87;;;4.53;;
13335;SDS011;6737;51.480;11.962;2022-10-31T03:20:07;5.77;;;4.13;;
13335;SDS011;6737;51.480;11.962;2022-10-31T03:22:35;6.60;;;4.30;;
13335;SDS011;6737;51.480;11.962;2022-10-31T03:25:03;6.87;;;4.70;;
13335;SDS011;6737;51.480;11.962;2022-10-31T03:27:31;8.90;;;4.60;;
13335;SDS011;6737;51.480;11.962;2022-10-31T03:30:01;9.73;;;4.53;;
13335;SDS011;6737;51.480;11.962;2022-10-31T03:32:32;6.87;;;4.60;;
13335;SDS011;6737;51.480;11.962;2022-10-31T03:35:16;8.20;;;4.87;;
13335;SDS011;6737;51.480;11.962;2022-10-31T03:37:44;8.20;;;4.77;;
13335;SDS011;6737;51.480;11.962;2022-10-31T03:40:13;9.43;;;5.27;;
13335;SDS011;6737;51.480;11.962;2022-10-31T03:42:41;6.80;;;4.47;;
13335;SDS011;6737;51.480;11.962;2022-10-31T03:45:15;8.50;;;5.33;;
13335;SDS011;6737;51.480;11.962;2022-10-31T03:47:46;10.40;;;5.00;;
13335;SDS011;6737;51.480;11.962;2022-10-31T03:50:13;7.27;;;4.77;;
13335;SDS011;6737;51.480;11.962;2022-10-31T03:52:41;8.03;;;4.50;;
13335;SDS011;6737;51.480;11.962;2022-10-31T04:00:31;12.30;;;5.03;;
13335;SDS011;6737;51.480;11.962;2022-10-31T04:03:00;6.33;;;4.50;;
13335;SDS011;6737;51.480;11.962;2022-10-31T04:05:32;9.70;;;4.33;;
13335;SDS011;6737;51.480;11.962;2022-10-31T04:08:00;6.53;;;4.30;;
13335;SDS011;6737;51.480;11.962;2022-10-31T04:10:27;8.07;;;4.43;;
13335;SDS011;6737;51.480;11.962;2022-10-31T04:12:56;8.77;;;4.00;;
13335;SDS011;6737;51.480;11.962;2022-10-31T04:15:31;6.40;;;4.20;;
13335;SDS011;6737;51.480;11.962;2022-10-31T04:18:00;6.70;;;4.50;;
13335;SDS011;6737;51.480;11.962;2022-10-31T04:20:30;6.43;;;4.63;;
13335;SDS011;6737;51.480;11.962;2022-10-31T04:22:56;7.50;;;4.57;;
13335;SDS011;6737;51.480;11.962;2022-10-31T04:25:22;7.70;;;4.80;;
13335;SDS011;6737;51.480;11.962;2022-10-31T04:27:48;7.83;;;4.80;;
13335;SDS011;6737;51.480;11.962;2022-10-31T04:30:13;9.93;;;4.60;;
13335;SDS011;6737;51.480;11.962;2022-10-31T04:32:39;6.20;;;4.30;;
13335;SDS011;6737;51.480;11.962;2022-10-31T04:35:05;5.67;;;4.00;;
13335;SDS011;6737;51.480;11.962;2022-10-31T04:37:31;10.43;;;4.63;;
13335;SDS011;6737;51.480;11.962;2022-10-31T04:39:57;10.50;;;4.30;;
13335;SDS011;6737;51.480;11.962;2022-10-31T04:42:22;5.73;;;4.07;;
13335;SDS011;6737;51.480;11.962;2022-10-31T04:44:48;6.87;;;3.80;;
13335;SDS011;6737;51.480;11.962;2022-10-31T04:47:14;8.80;;;4.27;;
13335;SDS011;6737;51.480;11.962;2022-10-31T04:49:39;7.63;;;4.10;;
13335;SDS011;6737;51.480;11.962;2022-10-31T04:52:05;8.63;;;3.80;;
13335;SDS011;6737;51.480;11.962;2022-10-31T04:54:32;6.57;;;4.00;;
13335;SDS011;6737;51.480;11.962;2022-10-31T04:56:58;7.67;;;4.20;;
13335;SDS011;6737;51.480;11.962;2022-10-31T04:59:23;5.20;;;3.70;;
13335;SDS011;6737;51.480;11.962;2022-10-31T05:01:49;6.23;;;3.80;;
13335;SDS011;6737;51.480;11.962;2022-10-31T05:04:15;5.20;;;3.80;;
13335;SDS011;6737;51.480;11.962;2022-10-31T05:06:40;9.90;;;3.50;;
13335;SDS011;6737;51.480;11.962;2022-10-31T05:09:06;10.23;;;4.37;;
13335;SDS011;6737;51.480;11.962;2022-10-31T05:11:32;5.27;;;3.80;;
13335;SDS011;6737;51.480;11.962;2022-10-31T05:13:58;5.83;;;3.43;;
13335;SDS011;6737;51.480;11.962;2022-10-31T05:16:23;5.77;;;3.67;;
13335;SDS011;6737;51.480;11.962;2022-10-31T05:18:49;7.10;;;3.23;;
13335;SDS011;6737;51.480;11.962;2022-10-31T05:21:15;5.80;;;3.67;;
13335;SDS011;6737;51.480;11.962;2022-10-31T05:23:40;4.33;;;3.47;;
13335;SDS011;6737;51.480;11.962;2022-10-31T05:26:06;11.53;;;3.90;;
13335;SDS011;6737;51.480;11.962;2022-10-31T05:28:32;5.37;;;3.30;;
13335;SDS011;6737;51.480;11.962;2022-10-31T05:30:58;5.93;;;3.60;;
13335;SDS011;6737;51.480;11.962;2022-10-31T05:33:23;5.20;;;3.43;;
13335;SDS011;6737;51.480;11.962;2022-10-31T05:35:49;8.83;;;3.87;;
13335;SDS011;6737;51.480;11.962;2022-10-31T05:38:15;4.63;;;3.30;;
13335;SDS011;6737;51.480;11.962;2022-10-31T05:40:40;5.10;;;3.33;;
13335;SDS011;6737;51.480;11.962;2022-10-31T05:43:06;6.80;;;3.40;;
13335;SDS011;6737;51.480;11.962;2022-10-31T05:45:32;6.50;;;3.20;;
13335;SDS011;6737;51.480;11.962;2022-10-31T05:47:59;5.10;;;2.90;;
13335;SDS011;6737;51.480;11.962;2022-10-31T05:50:27;4.30;;;3.07;;
13335;SDS011;6737;51.480;11.962;2022-10-31T05:52:55;4.80;;;2.57;;
13335;SDS011;6737;51.480;11.962;2022-10-31T05:55:29;5.83;;;2.70;;
13335;SDS011;6737;51.480;11.962;2022-10-31T05:57:56;3.63;;;2.83;;
13335;SDS011;6737;51.480;11.962;2022-10-31T06:00:22;5.43;;;2.57;;
13335;SDS011;6737;51.480;11.962;2022-10-31T06:02:57;2.83;;;2.30;;
13335;SDS011;6737;51.480;11.962;2022-10-31T06:05:27;4.23;;;2.50;;
13335;SDS011;6737;51.480;11.962;2022-10-31T06:07:54;2.67;;;2.23;;
13335;SDS011;6737;51.480;11.962;2022-10-31T06:10:20;2.37;;;2.10;;
13335;SDS011;6737;51.480;11.962;2022-10-31T06:12:46;3.47;;;2.00;;
13335;SDS011;6737;51.480;11.962;2022-10-31T06:15:13;3.10;;;2.33;;
13335;SDS011;6737;51.480;11.962;2022-10-31T06:17:39;4.97;;;2.27;;
13335;SDS011;6737;51.480;11.962;2022-10-31T06:20:05;4.10;;;2.37;;
13335;SDS011;6737;51.480;11.962;2022-10-31T06:22:32;2.73;;;2.43;;
13335;SDS011;6737;51.480;11.962;2022-10-31T06:24:58;4.03;;;2.80;;
13335;SDS011;6737;51.480;11.962;2022-10-31T06:27:24;3.57;;;2.67;;
13335;SDS011;6737;51.480;11.962;2022-10-31T06:29:50;4.40;;;2.77;;
13335;SDS011;6737;51.480;11.962;2022-10-31T06:32:16;4.37;;;2.90;;
13335;SDS011;6737;51.480;11.962;2022-10-31T06:34:42;5.00;;;2.70;;
13335;SDS011;6737;51.480;11.962;2022-10-31T06:37:09;7.53;;;3.00;;
13335;SDS011;6737;51.480;11.962;2022-10-31T06:39:35;4.20;;;2.47;;
13335;SDS011;6737;51.480;11.962;2022-10-31T06:42:02;3.80;;;2.80;;
13335;SDS011;6737;51.480;11.962;2022-10-31T06:44:28;4.17;;;2.67;;
13335;SDS011;6737;51.480;11.962;2022-10-31T06:46:54;3.00;;;2.50;;
13335;SDS011;6737;51.480;11.962;2022-10-31T06:49:20;3.47;;;2.53;;
13335;SDS011;6737;51.480;11.962;2022-10-31T06:51:49;3.67;;;2.37;;
13335;SDS011;6737;51.480;11.962;2022-10-31T06:54:16;4.13;;;2.67;;
13335;SDS011;6737;51.480;11.962;2022-10-31T06:56:42;4.20;;;2.50;;
13335;SDS011;6737;51.480;11.962;2022-10-31T06:59:08;4.03;;;2.70;;
13335;SDS011;6737;51.480;11.962;2022-10-31T07:01:33;5.07;;;2.70;;
13335;SDS011;6737;51.480;11.962;2022-10-31T07:03:59;4.13;;;2.87;;
13335;SDS011;6737;51.480;11.962;2022-10-31T07:06:25;3.63;;;2.50;;
13335;SDS011;6737;51.480;11.962;2022-10-31T07:08:50;5.80;;;3.00;;
13335;SDS011;6737;51.480;11.962;2022-10-31T07:11:16;7.10;;;2.67;;
13335;SDS011;6737;51.480;11.962;2022-10-31T07:13:42;2.97;;;2.50;;
13335;SDS011;6737;51.480;11.962;2022-10-31T07:16:08;5.70;;;2.97;;
13335;SDS011;6737;51.480;11.962;2022-10-31T07:18:35;4.77;;;3.07;;
13335;SDS011;6737;51.480;11.962;2022-10-31T07:21:01;3.13;;;2.23;;
13335;SDS011;6737;51.480;11.962;2022-10-31T07:23:27;4.00;;;2.73;;
13335;SDS011;6737;51.480;11.962;2022-10-31T07:25:56;3.40;;;2.70;;
13335;SDS011;6737;51.480;11.962;2022-10-31T07:28:22;3.93;;;2.83;;
13335;SDS011;6737;51.480;11.962;2022-10-31T07:30:49;3.87;;;2.87;;
13335;SDS011;6737;51.480;11.962;2022-10-31T07:33:16;4.90;;;3.07;;
13335;SDS011;6737;51.480;11.962;2022-10-31T07:35:42;4.50;;;2.70;;
13335;SDS011;6737;51.480;11.962;2022-10-31T07:38:08;4.60;;;3.17;;
13335;SDS011;6737;51.480;11.962;2022-10-31T07:40:36;5.40;;;3.47;;
13335;SDS011;6737;51.480;11.962;2022-10-31T07:43:01;5.77;;;3.57;;
13335;SDS011;6737;51.480;11.962;2022-10-31T07:45:27;4.87;;;3.60;;
13335;SDS011;6737;51.480;11.962;2022-10-31T07:47:53;4.80;;;4.00;;
13335;SDS011;6737;51.480;11.962;2022-10-31T07:50:22;6.67;;;3.80;;
13335;SDS011;6737;51.480;11.962;2022-10-31T07:55:35;4.50;;;3.30;;
13335;SDS011;6737;51.480;11.962;2022-10-31T08:00:29;6.97;;;4.20;;
13335;SDS011;6737;51.480;11.962;2022-10-31T08:03:08;6.63;;;4.00;;
13335;SDS011;6737;51.480;11.962;2022-10-31T08:05:39;5.87;;;4.23;;
13335;SDS011;6737;51.480;11.962;2022-10-31T08:08:11;7.27;;;4.30;;
13335;SDS011;6737;51.480;11.962;2022-10-31T08:10:37;7.07;;;4.73;;
13335;SDS011;6737;51.480;11.962;2022-10-31T08:13:05;8.50;;;4.73;;
13335;SDS011;6737;51.480;11.962;2022-10-31T08:15:33;7.67;;;4.87;;
13335;SDS011;6737;51.480;11.962;2022-10-31T08:18:03;9.57;;;5.47;;
13335;SDS011;6737;51.480;11.962;2022-10-31T08:20:29;9.47;;;5.43;;
13335;SDS011;6737;51.480;11.962;2022-10-31T08:22:56;8.70;;;5.53;;
13335;SDS011;6737;51.480;11.962;2022-10-31T08:25:24;9.63;;;5.40;;
13335;SDS011;6737;51.480;11.962;2022-10-31T08:27:53;7.63;;;5.13;;
13335;SDS011;6737;51.480;11.962;2022-10-31T08:30:21;9.40;;;4.87;;
13335;SDS011;6737;51.480;11.962;2022-10-31T08:33:03;7.57;;;5.00;;
13335;SDS011;6737;51.480;11.962;2022-10-31T08:35:35;9.23;;;5.13;;
13335;SDS011;6737;51.480;11.962;2022-10-31T08:38:01;8.17;;;5.23;;
13335;SDS011;6737;51.480;11.962;2022-10-31T08:40:28;8.80;;;5.80;;
13335;SDS011;6737;51.480;11.962;2022-10-31T08:43:02;12.67;;;5.77;;
13335;SDS011;6737;51.480;11.962;2022-10-31T08:45:30;9.67;;;5.60;;
13335;SDS011;6737;51.480;11.962;2022-10-31T08:47:58;7.43;;;5.57;;
13335;SDS011;6737;51.480;11.962;2022-10-31T08:50:26;8.63;;;5.57;;
13335;SDS011;6737;51.480;11.962;2022-10-31T08:52:53;11.00;;;5.23;;
13335;SDS011;6737;51.480;11.962;2022-10-31T08:55:24;10.27;;;5.67;;
13335;SDS011;6737;51.480;11.962;2022-10-31T08:57:54;10.53;;;5.60;;
13335;SDS011;6737;51.480;11.962;2022-10-31T09:00:21;13.87;;;6.20;;
13335;SDS011;6737;51.480;11.962;2022-10-31T09:02:47;11.10;;;5.67;;
13335;SDS011;6737;51.480;11.962;2022-10-31T09:05:12;14.83;;;6.60;;
13335;SDS011;6737;51.480;11.962;2022-10-31T09:07:38;9.83;;;6.33;;
13335;SDS011;6737;51.480;11.962;2022-10-31T09:10:04;9.37;;;5.80;;
13335;SDS011;6737;51.480;11.962;2022-10-31T09:12:30;10.47;;;6.30;;
13335;SDS011;6737;51.480;11.962;2022-10-31T09:14:56;9.87;;;6.23;;
13335;SDS011;6737;51.480;11.962;2022-10-31T09:17:21;11.97;;;6.50;;
13335;SDS011;6737;51.480;11.962;2022-10-31T09:19:47;13.27;;;7.23;;
13335;SDS011;6737;51.480;11.962;2022-10-31T09:22:13;12.40;;;6.53;;
13335;SDS011;6737;51.480;11.962;2022-10-31T09:24:39;12.97;;;7.03;;
13335;SDS011;6737;51.480;11.962;2022-10-31T09:27:05;14.73;;;7.30;;
13335;SDS011;6737;51.480;11.962;2022-10-31T09:29:30;17.70;;;8.07;;
13335;SDS011;6737;51.480;11.962;2022-10-31T09:31:56;14.97;;;7.73;;
13335;SDS011;6737;51.480;11.962;2022-10-31T09:34:22;15.57;;;8.30;;
13335;SDS011;6737;51.480;11.962;2022-10-31T09:36:48;18.23;;;9.30;;
13335;SDS011;6737;51.480;11.962;2022-10-31T09:39:13;19.53;;;9.77;;
13335;SDS011;6737;51.480;11.962;2022-10-31T09:44:33;23.73;;;12.43;;
13335;SDS011;6737;51.480;11.962;2022-10-31T09:47:40;25.20;;;11.03;;
13335;SDS011;6737;51.480;11.962;2022-10-31T09:50:23;21.80;;;11.50;;
13335;SDS011;6737;51.480;11.962;2022-10-31T09:53:16;23.53;;;11.23;;
13335;SDS011;6737;51.480;11.962;2022-10-31T09:55:47;19.75;;;11.20;;
13335;SDS011;6737;51.480;11.962;2022-10-31T09:58:16;22.08;;;10.60;;
13335;SDS011;6737;51.480;11.962;2022-10-31T10:00:45;25.17;;;11.52;;
13335;SDS011;6737;51.480;11.962;2022-10-31T10:06:39;27.25;;;12.80;;
13335;SDS011;6737;51.480;11.962;2022-10-31T10:08:49;29.45;;;14.60;;
13335;SDS011;6737;51.480;11.962;2022-10-31T10:20:34;27.85;;;13.52;;
13335;SDS011;6737;51.480;11.962;2022-10-31T10:22:51;27.40;;;13.75;;
13335;SDS011;6737;51.480;11.962;2022-10-31T10:25:26;28.45;;;14.52;;
13335;SDS011;6737;51.480;11.962;2022-10-31T10:30:43;28.38;;;14.35;;
13335;SDS011;6737;51.480;11.962;2022-10-31T10:35:48;29.25;;;14.80;;
13335;SDS011;6737;51.480;11.962;2022-10-31T10:41:10;35.38;;;14.48;;
13335;SDS011;6737;51.480;11.962;2022-10-31T10:43:42;32.15;;;13.13;;
13335;SDS011;6737;51.480;11.962;2022-10-31T10:52:07;27.55;;;14.00;;
13335;SDS011;6737;51.480;11.962;2022-10-31T10:55:09;26.48;;;13.40;;
13335;SDS011;6737;51.480;11.962;2022-10-31T10:57:46;26.05;;;14.13;;
13335;SDS011;6737;51.480;11.962;2022-10-31T11:00:32;29.75;;;15.07;;
13335;SDS011;6737;51.480;11.962;2022-10-31T11:03:11;27.17;;;12.55;;
13335;SDS011;6737;51.480;11.962;2022-10-31T11:05:51;32.65;;;14.73;;
13335;SDS011;6737;51.480;11.962;2022-10-31T11:11:17;25.60;;;13.32;;
13335;SDS011;6737;51.480;11.962;2022-10-31T11:14:02;31.52;;;14.05;;
13335;SDS011;6737;51.480;11.962;2022-10-31T11:16:35;26.27;;;13.70;;
13335;SDS011;6737;51.480;11.962;2022-10-31T11:19:08;27.90;;;14.63;;
13335;SDS011;6737;51.480;11.962;2022-10-31T11:21:36;26.75;;;14.18;;
13335;SDS011;6737;51.480;11.962;2022-10-31T11:26:34;26.83;;;14.07;;
13335;SDS011;6737;51.480;11.962;2022-10-31T11:29:04;27.45;;;13.38;;
13335;SDS011;6737;51.480;11.962;2022-10-31T11:31:31;29.88;;;15.43;;
13335;SDS011;6737;51.480;11.962;2022-10-31T11:34:00;33.95;;;14.57;;
13335;SDS011;6737;51.480;11.962;2022-10-31T11:36:30;27.58;;;14.65;;
13335;SDS011;6737;51.480;11.962;2022-10-31T11:39:00;29.35;;;14.02;;
13335;SDS011;6737;51.480;11.962;2022-10-31T11:41:34;34.55;;;15.23;;
13335;SDS011;6737;51.480;11.962;2022-10-31T11:44:15;28.95;;;14.20;;
13335;SDS011;6737;51.480;11.962;2022-10-31T11:46:46;25.77;;;14.20;;
13335;SDS011;6737;51.480;11.962;2022-10-31T11:49:16;27.60;;;14.98;;
13335;SDS011;6737;51.480;11.962;2022-10-31T11:51:51;31.10;;;14.90;;
13335;SDS011;6737;51.480;11.962;2022-10-31T11:54:27;31.05;;;14.18;;
13335;SDS011;6737;51.480;11.962;2022-10-31T11:57:00;28.08;;;14.93;;
13335;SDS011;6737;51.480;11.962;2022-10-31T12:01:54;30.20;;;15.57;;
13335;SDS011;6737;51.480;11.962;2022-10-31T12:04:32;29.90;;;14.27;;
13335;SDS011;6737;51.480;11.962;2022-10-31T12:07:13;32.53;;;15.80;;
13335;SDS011;6737;51.480;11.962;2022-10-31T12:09:39;30.50;;;16.80;;
13335;SDS011;6737;51.480;11.962;2022-10-31T12:23:17;31.48;;;16.65;;
13335;SDS011;6737;51.480;11.962;2022-10-31T12:29:15;32.10;;;15.48;;
13335;SDS011;6737;51.480;11.962;2022-10-31T12:32:03;27.23;;;14.15;;
13335;SDS011;6737;51.480;11.962;2022-10-31T12:34:58;31.45;;;14.57;;
13335;SDS011;6737;51.480;11.962;2022-10-31T12:57:13;31.40;;;15.98;;
13335;SDS011;6737;51.480;11.962;2022-10-31T13:00:03;31.27;;;16.60;;
13335;SDS011;6737;51.480;11.962;2022-10-31T13:02:43;37.35;;;17.27;;
13335;SDS011;6737;51.480;11.962;2022-10-31T13:08:06;33.30;;;16.98;;
13335;SDS011;6737;51.480;11.962;2022-10-31T13:10:43;34.85;;;16.30;;
13335;SDS011;6737;51.480;11.962;2022-10-31T13:13:15;31.63;;;16.58;;
13335;SDS011;6737;51.480;11.962;2022-10-31T13:15:46;35.95;;;16.10;;
13335;SDS011;6737;51.480;11.962;2022-10-31T13:18:25;30.98;;;17.50;;
13335;SDS011;6737;51.480;11.962;2022-10-31T13:20:55;30.30;;;16.10;;
13335;SDS011;6737;51.480;11.962;2022-10-31T13:25:54;34.03;;;16.92;;
13335;SDS011;6737;51.480;11.962;2022-10-31T13:28:43;33.42;;;16.38;;
13335;SDS011;6737;51.480;11.962;2022-10-31T13:31:10;33.70;;;16.13;;
13335;SDS011;6737;51.480;11.962;2022-10-31T13:33:40;35.47;;;16.63;;
13335;SDS011;6737;51.480;11.962;2022-10-31T13:41:36;36.63;;;17.05;;
13335;SDS011;6737;51.480;11.962;2022-10-31T13:44:22;33.15;;;16.73;;
13335;SDS011;6737;51.480;11.962;2022-10-31T13:46:51;34.60;;;16.17;;
13335;SDS011;6737;51.480;11.962;2022-10-31T13:51:49;34.72;;;16.80;;
13335;SDS011;6737;51.480;11.962;2022-10-31T13:54:22;33.88;;;16.73;;
13335;SDS011;6737;51.480;11.962;2022-10-31T13:56:56;38.55;;;16.60;;
13335;SDS011;6737;51.480;11.962;2022-10-31T13:59:23;34.45;;;16.98;;
13335;SDS011;6737;51.480;11.962;2022-10-31T14:01:56;37.00;;;18.05;;
13335;SDS011;6737;51.480;11.962;2022-10-31T14:04:27;34.08;;;17.35;;
13335;SDS011;6737;51.480;11.962;2022-10-31T14:09:39;34.03;;;16.58;;
13335;SDS011;6737;51.480;11.962;2022-10-31T14:14:52;37.05;;;17.33;;
13335;SDS011;6737;51.480;11.962;2022-10-31T14:17:24;37.28;;;17.60;;
13335;SDS011;6737;51.480;11.962;2022-10-31T14:19:58;37.67;;;17.52;;
13335;SDS011;6737;51.480;11.962;2022-10-31T14:22:45;36.08;;;17.67;;
13335;SDS011;6737;51.480;11.962;2022-10-31T14:27:58;39.42;;;16.40;;
13335;SDS011;6737;51.480;11.962;2022-10-31T14:30:26;41.20;;;17.35;;
13335;SDS011;6737;51.480;11.962;2022-10-31T14:33:00;39.40;;;17.85;;
13335;SDS011;6737;51.480;11.962;2022-10-31T14:38:34;37.65;;;16.52;;
13335;SDS011;6737;51.480;11.962;2022-10-31T14:49:34;38.15;;;17.98;;
13335;SDS011;6737;51.480;11.962;2022-10-31T14:52:12;36.08;;;17.80;;
13335;SDS011;6737;51.480;11.962;2022-10-31T14:54:42;34.85;;;17.92;;
13335;SDS011;6737;51.480;11.962;2022-10-31T14:57:19;41.38;;;18.33;;
13335;SDS011;6737;51.480;11.962;2022-10-31T14:59:48;41.15;;;19.58;;
13335;SDS011;6737;51.480;11.962;2022-10-31T15:02:27;36.72;;;17.90;;
13335;SDS011;6737;51.480;11.962;2022-10-31T15:04:59;37.78;;;17.20;;
13335;SDS011;6737;51.480;11.962;2022-10-31T15:07:26;37.53;;;17.92;;
13335;SDS011;6737;51.480;11.962;2022-10-31T15:10:05;36.42;;;17.77;;
13335;SDS011;6737;51.480;11.962;2022-10-31T15:12:44;38.53;;;17.58;;
13335;SDS011;6737;51.480;11.962;2022-10-31T15:15:11;42.05;;;17.30;;
13335;SDS011;6737;51.480;11.962;2022-10-31T15:17:44;42.33;;;17.67;;
13335;SDS011;6737;51.480;11.962;2022-10-31T15:20:19;46.30;;;17.98;;
13335;SDS011;6737;51.480;11.962;2022-10-31T15:22:48;45.25;;;19.63;;
13335;SDS011;6737;51.480;11.962;2022-10-31T15:25:18;40.55;;;18.02;;
13335;SDS011;6737;51.480;11.962;2022-10-31T15:27:47;45.00;;;18.48;;
13335;SDS011;6737;51.480;11.962;2022-10-31T15:30:21;39.00;;;17.90;;
13335;SDS011;6737;51.480;11.962;2022-10-31T15:32:49;36.25;;;17.15;;
13335;SDS011;6737;51.480;11.962;2022-10-31T15:35:26;37.08;;;15.75;;
13335;SDS011;6737;51.480;11.962;2022-10-31T15:37:54;37.80;;;18.17;;
13335;SDS011;6737;51.480;11.962;2022-10-31T15:40:23;39.30;;;19.35;;
13335;SDS011;6737;51.480;11.962;2022-10-31T15:42:57;42.78;;;18.88;;
13335;SDS011;6737;51.480;11.962;2022-10-31T15:45:27;41.88;;;18.65;;
13335;SDS011;6737;51.480;11.962;2022-10-31T15:53:02;37.80;;;18.35;;
13335;SDS011;6737;51.480;11.962;2022-10-31T15:55:32;35.28;;;18.33;;
13335;SDS011;6737;51.480;11.962;2022-10-31T15:58:03;42.22;;;19.80;;
13335;SDS011;6737;51.480;11.962;2022-10-31T16:00:38;48.47;;;20.80;;
13335;SDS011;6737;51.480;11.962;2022-10-31T16:05:43;52.53;;;22.88;;
13335;SDS011;6737;51.480;11.962;2022-10-31T16:11:17;48.83;;;23.27;;
13335;SDS011;6737;51.480;11.962;2022-10-31T16:16:18;56.17;;;23.83;;
13335;SDS011;6737;51.480;11.962;2022-10-31T16:18:48;51.95;;;23.75;;
13335;SDS011;6737;51.480;11.962;2022-10-31T16:21:22;49.83;;;23.90;;
13335;SDS011;6737;51.480;11.962;2022-10-31T16:24:20;55.90;;;24.30;;
13335;SDS011;6737;51.480;11.962;2022-10-31T16:26:51;50.15;;;24.02;;
13335;SDS011;6737;51.480;11.962;2022-10-31T16:29:25;55.58;;;24.15;;
13335;SDS011;6737;51.480;11.962;2022-10-31T16:31:54;57.33;;;23.52;;
13335;SDS011;6737;51.480;11.962;2022-10-31T16:34:20;52.38;;;24.30;;
13335;SDS011;6737;51.480;11.962;2022-10-31T16:36:47;55.67;;;25.15;;
13335;SDS011;6737;51.480;11.962;2022-10-31T16:39:13;53.35;;;23.33;;
13335;SDS011;6737;51.480;11.962;2022-10-31T16:41:43;57.55;;;22.83;;
13335;SDS011;6737;51.480;11.962;2022-10-31T16:44:19;50.25;;;23.42;;
13335;SDS011;6737;51.480;11.962;2022-10-31T16:46:48;56.63;;;24.67;;
13335;SDS011;6737;51.480;11.962;2022-10-31T16:49:34;57.95;;;23.17;;
13335;SDS011;6737;51.480;11.962;2022-10-31T16:52:00;54.10;;;24.42;;
13335;SDS011;6737;51.480;11.962;2022-10-31T16:54:25;53.63;;;25.35;;
13335;SDS011;6737;51.480;11.962;2022-10-31T16:56:54;53.47;;;24.48;;
13335;SDS011;6737;51.480;11.962;2022-10-31T16:59:20;53.15;;;24.50;;
13335;SDS011;6737;51.480;11.962;2022-10-31T17:01:47;55.90;;;25.52;;
13335;SDS011;6737;51.480;11.962;2022-10-31T17:04:14;57.88;;;23.85;;
13335;SDS011;6737;51.480;11.962;2022-10-31T17:06:40;49.38;;;23.13;;
13335;SDS011;6737;51.480;11.962;2022-10-31T17:09:07;57.45;;;23.00;;
13335;SDS011;6737;51.480;11.962;2022-10-31T17:11:33;54.72;;;23.13;;
13335;SDS011;6737;51.480;11.962;2022-10-31T17:14:00;53.78;;;23.05;;
13335;SDS011;6737;51.480;11.962;2022-10-31T17:16:26;52.08;;;22.52;;
13335;SDS011;6737;51.480;11.962;2022-10-31T17:18:51;54.85;;;23.45;;
13335;SDS011;6737;51.480;11.962;2022-10-31T17:21:18;49.15;;;21.33;;
13335;SDS011;6737;51.480;11.962;2022-10-31T17:23:47;43.17;;;20.50;;
13335;SDS011;6737;51.480;11.962;2022-10-31T17:26:14;39.95;;;20.58;;
13335;SDS011;6737;51.480;11.962;2022-10-31T17:28:40;40.55;;;20.33;;